sensor_id;sensor_type;location;lat;lon;timestamp;pressure;altitude;pressure_sealevel;temperature
15079;BMP180;6932;51.438;5.470;2024-02-26T00:01:39;99370.00;;;13.50
15079;BMP180;6932;51.438;5.470;2024-02-26T00:04:05;99375.00;;;13.50
15079;BMP180;6932;51.438;5.470;2024-02-26T00:06:31;99362.00;;;13.50
15079;BMP180;6932;51.438;5.470;2024-02-26T00:08:57;99368.00;;;13.50
15079;BMP180;6932;51.438;5.470;2024-02-26T00:11:23;99374.00;;;13.50
15079;BMP180;6932;51.438;5.470;2024-02-26T00:13:49;99372.00;;;13.50
15079;BMP180;6932;51.438;5.470;2024-02-26T00:16:15;99358.00;;;13.50
15079;BMP180;6932;51.438;5.470;2024-02-26T00:18:40;99371.00;;;13.50
15079;BMP180;6932;51.438;5.470;2024-02-26T00:21:06;99373.00;;;13.50
15079;BMP180;6932;51.438;5.470;2024-02-26T00:23:32;99368.00;;;13.50
15079;BMP180;6932;51.438;5.470;2024-02-26T00:25:58;99370.00;;;13.50
15079;BMP180;6932;51.438;5.470;2024-02-26T00:28:24;99358.00;;;13.50
15079;BMP180;6932;51.438;5.470;2024-02-26T00:30:50;99360.00;;;13.40
15079;BMP180;6932;51.438;5.470;2024-02-26T00:33:22;99359.00;;;13.40
15079;BMP180;6932;51.438;5.470;2024-02-26T00:35:48;99365.00;;;13.40
15079;BMP180;6932;51.438;5.470;2024-02-26T00:38:14;99367.00;;;13.40
15079;BMP180;6932;51.438;5.470;2024-02-26T00:40:40;99360.00;;;13.40
15079;BMP180;6932;51.438;5.470;2024-02-26T00:43:07;99362.00;;;13.40
15079;BMP180;6932;51.438;5.470;2024-02-26T00:45:33;99349.00;;;13.40
15079;BMP180;6932;51.438;5.470;2024-02-26T00:47:59;99348.00;;;13.40
15079;BMP180;6932;51.438;5.470;2024-02-26T00:50:33;99344.00;;;13.40
15079;BMP180;6932;51.438;5.470;2024-02-26T00:52:59;99346.00;;;13.40
15079;BMP180;6932;51.438;5.470;2024-02-26T00:55:25;99341.00;;;13.40
15079;BMP180;6932;51.438;5.470;2024-02-26T00:57:51;99340.00;;;13.30
15079;BMP180;6932;51.438;5.470;2024-02-26T01:00:18;99347.00;;;13.30
15079;BMP180;6932;51.438;5.470;2024-02-26T01:02:44;99348.00;;;13.30
15079;BMP180;6932;51.438;5.470;2024-02-26T01:05:13;99353.00;;;13.30
15079;BMP180;6932;51.438;5.470;2024-02-26T01:07:39;99363.00;;;13.30
15079;BMP180;6932;51.438;5.470;2024-02-26T01:10:06;99356.00;;;13.30
15079;BMP180;6932;51.438;5.470;2024-02-26T01:12:33;99364.00;;;13.30
15079;BMP180;6932;51.438;5.470;2024-02-26T01:15:03;99367.00;;;13.30
15079;BMP180;6932;51.438;5.470;2024-02-26T01:17:29;99363.00;;;13.30
15079;BMP180;6932;51.438;5.470;2024-02-26T01:19:55;99367.00;;;13.30
15079;BMP180;6932;51.438;5.470;2024-02-26T01:22:21;99366.00;;;13.30
15079;BMP180;6932;51.438;5.470;2024-02-26T01:24:46;99367.00;;;13.30
15079;BMP180;6932;51.438;5.470;2024-02-26T01:27:12;99370.00;;;13.30
15079;BMP180;6932;51.438;5.470;2024-02-26T01:29:40;99373.00;;;13.30
15079;BMP180;6932;51.438;5.470;2024-02-26T01:32:06;99373.00;;;13.20
15079;BMP180;6932;51.438;5.470;2024-02-26T01:34:32;99381.00;;;13.20
15079;BMP180;6932;51.438;5.470;2024-02-26T01:36:58;99379.00;;;13.20
15079;BMP180;6932;51.438;5.470;2024-02-26T01:39:24;99379.00;;;13.20
15079;BMP180;6932;51.438;5.470;2024-02-26T01:41:49;99380.00;;;13.20
15079;BMP180;6932;51.438;5.470;2024-02-26T01:44:15;99387.00;;;13.20
15079;BMP180;6932;51.438;5.470;2024-02-26T01:46:41;99387.00;;;13.20
15079;BMP180;6932;51.438;5.470;2024-02-26T01:49:11;99390.00;;;13.10
15079;BMP180;6932;51.438;5.470;2024-02-26T01:51:39;99393.00;;;13.10
15079;BMP180;6932;51.438;5.470;2024-02-26T01:54:08;99391.00;;;13.10
15079;BMP180;6932;51.438;5.470;2024-02-26T01:56:36;99395.00;;;13.10
15079;BMP180;6932;51.438;5.470;2024-02-26T01:59:03;99396.00;;;13.10
15079;BMP180;6932;51.438;5.470;2024-02-26T02:01:32;99385.00;;;13.00
15079;BMP180;6932;51.438;5.470;2024-02-26T02:03:59;99397.00;;;13.00
15079;BMP180;6932;51.438;5.470;2024-02-26T02:06:26;99397.00;;;13.00
15079;BMP180;6932;51.438;5.470;2024-02-26T02:08:54;99392.00;;;13.00
15079;BMP180;6932;51.438;5.470;2024-02-26T02:11:20;99394.00;;;13.00
15079;BMP180;6932;51.438;5.470;2024-02-26T02:13:46;99389.00;;;13.00
15079;BMP180;6932;51.438;5.470;2024-02-26T02:16:13;99383.00;;;13.00
15079;BMP180;6932;51.438;5.470;2024-02-26T02:18:38;99379.00;;;12.90
15079;BMP180;6932;51.438;5.470;2024-02-26T02:21:04;99380.00;;;12.90
15079;BMP180;6932;51.438;5.470;2024-02-26T02:23:30;99385.00;;;12.90
15079;BMP180;6932;51.438;5.470;2024-02-26T02:25:57;99385.00;;;12.90
15079;BMP180;6932;51.438;5.470;2024-02-26T02:28:25;99390.00;;;12.90
15079;BMP180;6932;51.438;5.470;2024-02-26T02:30:51;99388.00;;;12.90
15079;BMP180;6932;51.438;5.470;2024-02-26T02:33:17;99386.00;;;12.90
15079;BMP180;6932;51.438;5.470;2024-02-26T02:35:43;99385.00;;;12.80
15079;BMP180;6932;51.438;5.470;2024-02-26T02:38:09;99391.00;;;12.80
15079;BMP180;6932;51.438;5.470;2024-02-26T02:40:35;99388.00;;;12.80
15079;BMP180;6932;51.438;5.470;2024-02-26T02:43:01;99382.00;;;12.80
15079;BMP180;6932;51.438;5.470;2024-02-26T02:45:30;99384.00;;;12.80
15079;BMP180;6932;51.438;5.470;2024-02-26T02:47:56;99383.00;;;12.80
15079;BMP180;6932;51.438;5.470;2024-02-26T02:50:22;99389.00;;;12.70
15079;BMP180;6932;51.438;5.470;2024-02-26T02:52:48;99392.00;;;12.70
15079;BMP180;6932;51.438;5.470;2024-02-26T02:55:16;99388.00;;;12.70
15079;BMP180;6932;51.438;5.470;2024-02-26T02:57:42;99383.00;;;12.70
15079;BMP180;6932;51.438;5.470;2024-02-26T03:00:11;99388.00;;;12.70
15079;BMP180;6932;51.438;5.470;2024-02-26T03:02:38;99386.00;;;12.70
15079;BMP180;6932;51.438;5.470;2024-02-26T03:05:04;99394.00;;;12.70
15079;BMP180;6932;51.438;5.470;2024-02-26T03:07:30;99386.00;;;12.60
15079;BMP180;6932;51.438;5.470;2024-02-26T03:09:56;99382.00;;;12.60
15079;BMP180;6932;51.438;5.470;2024-02-26T03:12:22;99380.00;;;12.60
15079;BMP180;6932;51.438;5.470;2024-02-26T03:14:48;99383.00;;;12.60
15079;BMP180;6932;51.438;5.470;2024-02-26T03:17:14;99390.00;;;12.60
15079;BMP180;6932;51.438;5.470;2024-02-26T03:19:40;99380.00;;;12.50
15079;BMP180;6932;51.438;5.470;2024-02-26T03:22:05;99387.00;;;12.50
15079;BMP180;6932;51.438;5.470;2024-02-26T03:24:31;99389.00;;;12.50
15079;BMP180;6932;51.438;5.470;2024-02-26T03:26:57;99388.00;;;12.50
15079;BMP180;6932;51.438;5.470;2024-02-26T03:29:23;99393.00;;;12.50
15079;BMP180;6932;51.438;5.470;2024-02-26T03:31:48;99397.00;;;12.50
15079;BMP180;6932;51.438;5.470;2024-02-26T03:34:14;99391.00;;;12.50
15079;BMP180;6932;51.438;5.470;2024-02-26T03:36:41;99384.00;;;12.50
15079;BMP180;6932;51.438;5.470;2024-02-26T03:39:07;99388.00;;;12.40
15079;BMP180;6932;51.438;5.470;2024-02-26T03:41:34;99385.00;;;12.50
15079;BMP180;6932;51.438;5.470;2024-02-26T03:44:01;99389.00;;;12.50
15079;BMP180;6932;51.438;5.470;2024-02-26T03:46:27;99383.00;;;12.40
15079;BMP180;6932;51.438;5.470;2024-02-26T03:48:52;99394.00;;;12.40
15079;BMP180;6932;51.438;5.470;2024-02-26T03:51:19;99394.00;;;12.40
15079;BMP180;6932;51.438;5.470;2024-02-26T03:53:44;99391.00;;;12.40
15079;BMP180;6932;51.438;5.470;2024-02-26T03:56:12;99403.00;;;12.40
15079;BMP180;6932;51.438;5.470;2024-02-26T03:58:41;99395.00;;;12.40
15079;BMP180;6932;51.438;5.470;2024-02-26T04:01:08;99395.00;;;12.40
15079;BMP180;6932;51.438;5.470;2024-02-26T04:03:34;99393.00;;;12.40
15079;BMP180;6932;51.438;5.470;2024-02-26T04:06:01;99393.00;;;12.40
15079;BMP180;6932;51.438;5.470;2024-02-26T04:08:27;99388.00;;;12.40
15079;BMP180;6932;51.438;5.470;2024-02-26T04:10:52;99399.00;;;12.30
15079;BMP180;6932;51.438;5.470;2024-02-26T04:13:19;99398.00;;;12.30
15079;BMP180;6932;51.438;5.470;2024-02-26T04:15:45;99404.00;;;12.30
15079;BMP180;6932;51.438;5.470;2024-02-26T04:18:12;99415.00;;;12.30
15079;BMP180;6932;51.438;5.470;2024-02-26T04:20:38;99410.00;;;12.30
15079;BMP180;6932;51.438;5.470;2024-02-26T04:23:04;99398.00;;;12.30
15079;BMP180;6932;51.438;5.470;2024-02-26T04:25:30;99413.00;;;12.30
15079;BMP180;6932;51.438;5.470;2024-02-26T04:27:55;99406.00;;;12.30
15079;BMP180;6932;51.438;5.470;2024-02-26T04:30:21;99402.00;;;12.30
15079;BMP180;6932;51.438;5.470;2024-02-26T04:32:47;99408.00;;;12.30
15079;BMP180;6932;51.438;5.470;2024-02-26T04:35:12;99410.00;;;12.30
15079;BMP180;6932;51.438;5.470;2024-02-26T04:37:38;99421.00;;;12.30
15079;BMP180;6932;51.438;5.470;2024-02-26T04:40:05;99417.00;;;12.30
15079;BMP180;6932;51.438;5.470;2024-02-26T04:42:31;99423.00;;;12.30
15079;BMP180;6932;51.438;5.470;2024-02-26T04:44:57;99432.00;;;12.30
15079;BMP180;6932;51.438;5.470;2024-02-26T04:47:22;99428.00;;;12.30
15079;BMP180;6932;51.438;5.470;2024-02-26T04:49:50;99424.00;;;12.30
15079;BMP180;6932;51.438;5.470;2024-02-26T04:52:16;99429.00;;;12.30
15079;BMP180;6932;51.438;5.470;2024-02-26T04:54:41;99426.00;;;12.30
15079;BMP180;6932;51.438;5.470;2024-02-26T04:57:07;99428.00;;;12.30
15079;BMP180;6932;51.438;5.470;2024-02-26T04:59:33;99419.00;;;12.30
15079;BMP180;6932;51.438;5.470;2024-02-26T05:01:58;99416.00;;;12.30
15079;BMP180;6932;51.438;5.470;2024-02-26T05:04:24;99420.00;;;12.30
15079;BMP180;6932;51.438;5.470;2024-02-26T05:06:50;99429.00;;;12.30
15079;BMP180;6932;51.438;5.470;2024-02-26T05:09:16;99428.00;;;12.20
15079;BMP180;6932;51.438;5.470;2024-02-26T05:11:42;99431.00;;;12.20
15079;BMP180;6932;51.438;5.470;2024-02-26T05:14:08;99426.00;;;12.20
15079;BMP180;6932;51.438;5.470;2024-02-26T05:16:34;99436.00;;;12.20
15079;BMP180;6932;51.438;5.470;2024-02-26T05:18:59;99436.00;;;12.20
15079;BMP180;6932;51.438;5.470;2024-02-26T05:21:25;99436.00;;;12.20
15079;BMP180;6932;51.438;5.470;2024-02-26T05:23:51;99445.00;;;12.20
15079;BMP180;6932;51.438;5.470;2024-02-26T05:26:21;99438.00;;;12.20
15079;BMP180;6932;51.438;5.470;2024-02-26T05:28:47;99441.00;;;12.20
15079;BMP180;6932;51.438;5.470;2024-02-26T05:31:13;99426.00;;;12.20
15079;BMP180;6932;51.438;5.470;2024-02-26T05:33:39;99431.00;;;12.20
15079;BMP180;6932;51.438;5.470;2024-02-26T05:36:06;99437.00;;;12.20
15079;BMP180;6932;51.438;5.470;2024-02-26T05:38:31;99439.00;;;12.20
15079;BMP180;6932;51.438;5.470;2024-02-26T05:40:58;99449.00;;;12.20
15079;BMP180;6932;51.438;5.470;2024-02-26T05:43:27;99463.00;;;12.20
15079;BMP180;6932;51.438;5.470;2024-02-26T05:45:53;99467.00;;;12.20
15079;BMP180;6932;51.438;5.470;2024-02-26T05:48:19;99467.00;;;12.20
15079;BMP180;6932;51.438;5.470;2024-02-26T05:50:46;99464.00;;;12.20
15079;BMP180;6932;51.438;5.470;2024-02-26T05:53:12;99480.00;;;12.20
15079;BMP180;6932;51.438;5.470;2024-02-26T05:55:37;99485.00;;;12.20
15079;BMP180;6932;51.438;5.470;2024-02-26T05:58:04;99487.00;;;12.20
15079;BMP180;6932;51.438;5.470;2024-02-26T06:00:29;99484.00;;;12.20
15079;BMP180;6932;51.438;5.470;2024-02-26T06:02:55;99490.00;;;12.20
15079;BMP180;6932;51.438;5.470;2024-02-26T06:05:21;99497.00;;;12.20
15079;BMP180;6932;51.438;5.470;2024-02-26T06:07:47;99494.00;;;12.20
15079;BMP180;6932;51.438;5.470;2024-02-26T06:10:12;99487.00;;;12.20
15079;BMP180;6932;51.438;5.470;2024-02-26T06:12:39;99490.00;;;12.20
15079;BMP180;6932;51.438;5.470;2024-02-26T06:15:07;99497.00;;;12.20
15079;BMP180;6932;51.438;5.470;2024-02-26T06:17:33;99505.00;;;12.20
15079;BMP180;6932;51.438;5.470;2024-02-26T06:19:59;99497.00;;;12.20
15079;BMP180;6932;51.438;5.470;2024-02-26T06:22:26;99500.00;;;12.20
15079;BMP180;6932;51.438;5.470;2024-02-26T06:24:52;99505.00;;;12.20
15079;BMP180;6932;51.438;5.470;2024-02-26T06:27:17;99509.00;;;12.20
15079;BMP180;6932;51.438;5.470;2024-02-26T06:29:43;99499.00;;;12.20
15079;BMP180;6932;51.438;5.470;2024-02-26T06:32:09;99507.00;;;12.20
15079;BMP180;6932;51.438;5.470;2024-02-26T06:34:35;99508.00;;;12.20
15079;BMP180;6932;51.438;5.470;2024-02-26T06:37:01;99512.00;;;12.20
15079;BMP180;6932;51.438;5.470;2024-02-26T06:39:26;99522.00;;;12.20
15079;BMP180;6932;51.438;5.470;2024-02-26T06:41:52;99512.00;;;12.20
15079;BMP180;6932;51.438;5.470;2024-02-26T06:44:26;99511.00;;;12.20
15079;BMP180;6932;51.438;5.470;2024-02-26T06:46:52;99510.00;;;12.10
15079;BMP180;6932;51.438;5.470;2024-02-26T06:49:18;99524.00;;;12.10
15079;BMP180;6932;51.438;5.470;2024-02-26T06:51:43;99524.00;;;12.10
15079;BMP180;6932;51.438;5.470;2024-02-26T06:54:09;99526.00;;;12.10
15079;BMP180;6932;51.438;5.470;2024-02-26T06:56:35;99526.00;;;12.10
15079;BMP180;6932;51.438;5.470;2024-02-26T06:59:00;99532.00;;;12.10
15079;BMP180;6932;51.438;5.470;2024-02-26T07:01:26;99535.00;;;12.10
15079;BMP180;6932;51.438;5.470;2024-02-26T07:03:52;99531.00;;;12.10
15079;BMP180;6932;51.438;5.470;2024-02-26T07:06:18;99536.00;;;12.10
15079;BMP180;6932;51.438;5.470;2024-02-26T07:08:43;99539.00;;;12.10
15079;BMP180;6932;51.438;5.470;2024-02-26T07:11:10;99555.00;;;12.10
15079;BMP180;6932;51.438;5.470;2024-02-26T07:13:36;99548.00;;;12.10
15079;BMP180;6932;51.438;5.470;2024-02-26T07:16:03;99556.00;;;12.10
15079;BMP180;6932;51.438;5.470;2024-02-26T07:18:29;99564.00;;;12.10
15079;BMP180;6932;51.438;5.470;2024-02-26T07:20:54;99560.00;;;12.10
15079;BMP180;6932;51.438;5.470;2024-02-26T07:23:21;99577.00;;;12.00
15079;BMP180;6932;51.438;5.470;2024-02-26T07:25:47;99576.00;;;12.00
15079;BMP180;6932;51.438;5.470;2024-02-26T07:28:14;99588.00;;;12.00
15079;BMP180;6932;51.438;5.470;2024-02-26T07:30:40;99594.00;;;12.00
15079;BMP180;6932;51.438;5.470;2024-02-26T07:33:06;99588.00;;;12.00
15079;BMP180;6932;51.438;5.470;2024-02-26T07:35:33;99598.00;;;12.00
15079;BMP180;6932;51.438;5.470;2024-02-26T07:37:59;99599.00;;;12.00
15079;BMP180;6932;51.438;5.470;2024-02-26T07:40:25;99602.00;;;12.00
15079;BMP180;6932;51.438;5.470;2024-02-26T07:42:51;99607.00;;;12.00
15079;BMP180;6932;51.438;5.470;2024-02-26T07:45:16;99605.00;;;12.00
15079;BMP180;6932;51.438;5.470;2024-02-26T07:47:46;99609.00;;;12.00
15079;BMP180;6932;51.438;5.470;2024-02-26T07:50:12;99611.00;;;12.00
15079;BMP180;6932;51.438;5.470;2024-02-26T07:52:38;99611.00;;;12.00
15079;BMP180;6932;51.438;5.470;2024-02-26T07:55:05;99611.00;;;12.00
15079;BMP180;6932;51.438;5.470;2024-02-26T07:57:32;99618.00;;;12.00
15079;BMP180;6932;51.438;5.470;2024-02-26T07:59:59;99629.00;;;12.00
15079;BMP180;6932;51.438;5.470;2024-02-26T08:02:25;99630.00;;;12.00
15079;BMP180;6932;51.438;5.470;2024-02-26T08:04:51;99637.00;;;11.90
15079;BMP180;6932;51.438;5.470;2024-02-26T08:07:17;99644.00;;;12.00
15079;BMP180;6932;51.438;5.470;2024-02-26T08:09:42;99639.00;;;12.00
15079;BMP180;6932;51.438;5.470;2024-02-26T08:12:08;99637.00;;;12.00
15079;BMP180;6932;51.438;5.470;2024-02-26T08:14:34;99631.00;;;12.00
15079;BMP180;6932;51.438;5.470;2024-02-26T08:17:00;99639.00;;;12.00
15079;BMP180;6932;51.438;5.470;2024-02-26T08:19:26;99645.00;;;12.00
15079;BMP180;6932;51.438;5.470;2024-02-26T08:21:52;99651.00;;;12.00
15079;BMP180;6932;51.438;5.470;2024-02-26T08:24:18;99654.00;;;12.00
15079;BMP180;6932;51.438;5.470;2024-02-26T08:26:44;99662.00;;;12.00
15079;BMP180;6932;51.438;5.470;2024-02-26T08:29:10;99654.00;;;12.00
15079;BMP180;6932;51.438;5.470;2024-02-26T08:31:36;99667.00;;;12.00
15079;BMP180;6932;51.438;5.470;2024-02-26T08:34:03;99665.00;;;12.00
15079;BMP180;6932;51.438;5.470;2024-02-26T08:36:33;99669.00;;;12.00
15079;BMP180;6932;51.438;5.470;2024-02-26T08:38:58;99674.00;;;12.00
15079;BMP180;6932;51.438;5.470;2024-02-26T08:41:24;99676.00;;;12.00
15079;BMP180;6932;51.438;5.470;2024-02-26T08:43:50;99680.00;;;12.00
15079;BMP180;6932;51.438;5.470;2024-02-26T08:46:16;99681.00;;;12.00
15079;BMP180;6932;51.438;5.470;2024-02-26T08:48:42;99676.00;;;12.00
15079;BMP180;6932;51.438;5.470;2024-02-26T08:51:08;99685.00;;;12.00
15079;BMP180;6932;51.438;5.470;2024-02-26T08:53:38;99687.00;;;12.00
15079;BMP180;6932;51.438;5.470;2024-02-26T08:56:05;99688.00;;;12.00
15079;BMP180;6932;51.438;5.470;2024-02-26T08:58:31;99691.00;;;12.00
15079;BMP180;6932;51.438;5.470;2024-02-26T09:00:57;99706.00;;;12.00
15079;BMP180;6932;51.438;5.470;2024-02-26T09:03:23;99705.00;;;12.00
15079;BMP180;6932;51.438;5.470;2024-02-26T09:05:49;99699.00;;;12.00
15079;BMP180;6932;51.438;5.470;2024-02-26T09:08:15;99702.00;;;12.00
15079;BMP180;6932;51.438;5.470;2024-02-26T09:10:41;99713.00;;;12.00
15079;BMP180;6932;51.438;5.470;2024-02-26T09:13:07;99717.00;;;12.00
15079;BMP180;6932;51.438;5.470;2024-02-26T09:15:33;99713.00;;;12.00
15079;BMP180;6932;51.438;5.470;2024-02-26T09:17:59;99719.00;;;12.00
15079;BMP180;6932;51.438;5.470;2024-02-26T09:20:25;99720.00;;;12.00
15079;BMP180;6932;51.438;5.470;2024-02-26T09:22:51;99721.00;;;12.00
15079;BMP180;6932;51.438;5.470;2024-02-26T09:25:17;99731.00;;;12.00
15079;BMP180;6932;51.438;5.470;2024-02-26T09:27:44;99736.00;;;12.00
15079;BMP180;6932;51.438;5.470;2024-02-26T09:30:13;99735.00;;;12.00
15079;BMP180;6932;51.438;5.470;2024-02-26T09:32:40;99740.00;;;12.00
15079;BMP180;6932;51.438;5.470;2024-02-26T09:35:06;99739.00;;;12.00
15079;BMP180;6932;51.438;5.470;2024-02-26T09:37:33;99748.00;;;12.00
15079;BMP180;6932;51.438;5.470;2024-02-26T09:39:59;99742.00;;;12.00
15079;BMP180;6932;51.438;5.470;2024-02-26T09:42:26;99744.00;;;12.00
15079;BMP180;6932;51.438;5.470;2024-02-26T09:44:54;99752.00;;;12.00
15079;BMP180;6932;51.438;5.470;2024-02-26T09:47:23;99757.00;;;12.00
15079;BMP180;6932;51.438;5.470;2024-02-26T09:49:54;99762.00;;;12.00
15079;BMP180;6932;51.438;5.470;2024-02-26T09:52:23;99761.00;;;12.00
15079;BMP180;6932;51.438;5.470;2024-02-26T09:54:49;99764.00;;;12.00
15079;BMP180;6932;51.438;5.470;2024-02-26T09:57:16;99766.00;;;12.00
15079;BMP180;6932;51.438;5.470;2024-02-26T09:59:44;99768.00;;;12.00
15079;BMP180;6932;51.438;5.470;2024-02-26T10:02:13;99780.00;;;12.00
15079;BMP180;6932;51.438;5.470;2024-02-26T10:04:43;99778.00;;;12.00
15079;BMP180;6932;51.438;5.470;2024-02-26T10:07:13;99786.00;;;12.00
15079;BMP180;6932;51.438;5.470;2024-02-26T10:09:40;99790.00;;;12.00
15079;BMP180;6932;51.438;5.470;2024-02-26T10:12:10;99797.00;;;12.00
15079;BMP180;6932;51.438;5.470;2024-02-26T10:14:36;99794.00;;;12.00
15079;BMP180;6932;51.438;5.470;2024-02-26T10:17:02;99802.00;;;12.10
15079;BMP180;6932;51.438;5.470;2024-02-26T10:19:30;99803.00;;;12.10
15079;BMP180;6932;51.438;5.470;2024-02-26T10:22:01;99805.00;;;12.00
15079;BMP180;6932;51.438;5.470;2024-02-26T10:24:29;99809.00;;;12.10
15079;BMP180;6932;51.438;5.470;2024-02-26T10:26:56;99818.00;;;12.10
15079;BMP180;6932;51.438;5.470;2024-02-26T10:29:25;99824.00;;;12.10
15079;BMP180;6932;51.438;5.470;2024-02-26T10:31:52;99828.00;;;12.10
15079;BMP180;6932;51.438;5.470;2024-02-26T10:34:18;99828.00;;;12.10
15079;BMP180;6932;51.438;5.470;2024-02-26T10:36:44;99842.00;;;12.10
15079;BMP180;6932;51.438;5.470;2024-02-26T10:39:12;99838.00;;;12.10
15079;BMP180;6932;51.438;5.470;2024-02-26T10:41:44;99848.00;;;12.10
15079;BMP180;6932;51.438;5.470;2024-02-26T10:44:11;99854.00;;;12.10
15079;BMP180;6932;51.438;5.470;2024-02-26T10:46:41;99860.00;;;12.10
15079;BMP180;6932;51.438;5.470;2024-02-26T10:49:14;99866.00;;;12.10
15079;BMP180;6932;51.438;5.470;2024-02-26T10:51:45;99859.00;;;12.20
15079;BMP180;6932;51.438;5.470;2024-02-26T10:54:16;99867.00;;;12.10
15079;BMP180;6932;51.438;5.470;2024-02-26T10:56:42;99886.00;;;12.20
15079;BMP180;6932;51.438;5.470;2024-02-26T10:59:10;99876.00;;;12.20
15079;BMP180;6932;51.438;5.470;2024-02-26T11:01:36;99869.00;;;12.20
15079;BMP180;6932;51.438;5.470;2024-02-26T11:04:08;99880.00;;;12.20
15079;BMP180;6932;51.438;5.470;2024-02-26T11:06:36;99873.00;;;12.20
15079;BMP180;6932;51.438;5.470;2024-02-26T11:09:02;99888.00;;;12.20
15079;BMP180;6932;51.438;5.470;2024-02-26T11:11:31;99893.00;;;12.20
15079;BMP180;6932;51.438;5.470;2024-02-26T11:13:58;99904.00;;;12.20
15079;BMP180;6932;51.438;5.470;2024-02-26T11:16:27;99901.00;;;12.20
15079;BMP180;6932;51.438;5.470;2024-02-26T11:18:54;99894.00;;;12.10
15079;BMP180;6932;51.438;5.470;2024-02-26T11:21:21;99891.00;;;12.10
15079;BMP180;6932;51.438;5.470;2024-02-26T11:24:09;99903.00;;;12.10
15079;BMP180;6932;51.438;5.470;2024-02-26T11:26:45;99901.00;;;12.10
15079;BMP180;6932;51.438;5.470;2024-02-26T11:29:17;99910.00;;;12.10
15079;BMP180;6932;51.438;5.470;2024-02-26T11:31:46;99910.00;;;12.10
15079;BMP180;6932;51.438;5.470;2024-02-26T11:34:12;99902.00;;;12.10
15079;BMP180;6932;51.438;5.470;2024-02-26T11:36:38;99912.00;;;12.20
15079;BMP180;6932;51.438;5.470;2024-02-26T11:39:06;99908.00;;;12.20
15079;BMP180;6932;51.438;5.470;2024-02-26T11:41:32;99915.00;;;12.10
15079;BMP180;6932;51.438;5.470;2024-02-26T11:44:01;99913.00;;;12.10
15079;BMP180;6932;51.438;5.470;2024-02-26T11:46:39;99921.00;;;12.10
15079;BMP180;6932;51.438;5.470;2024-02-26T11:51:54;99924.00;;;12.10
15079;BMP180;6932;51.438;5.470;2024-02-26T11:54:51;99926.00;;;12.10
15079;BMP180;6932;51.438;5.470;2024-02-26T11:57:40;99921.00;;;12.10
15079;BMP180;6932;51.438;5.470;2024-02-26T12:02:57;99923.00;;;12.10
15079;BMP180;6932;51.438;5.470;2024-02-26T12:05:25;99923.00;;;12.10
15079;BMP180;6932;51.438;5.470;2024-02-26T12:08:05;99927.00;;;12.10
15079;BMP180;6932;51.438;5.470;2024-02-26T12:10:41;99933.00;;;12.10
15079;BMP180;6932;51.438;5.470;2024-02-26T12:13:12;99941.00;;;12.20
15079;BMP180;6932;51.438;5.470;2024-02-26T12:15:56;99937.00;;;12.20
15079;BMP180;6932;51.438;5.470;2024-02-26T12:18:23;99948.00;;;12.20
15079;BMP180;6932;51.438;5.470;2024-02-26T12:21:03;99953.00;;;12.10
15079;BMP180;6932;51.438;5.470;2024-02-26T12:23:30;99952.00;;;12.20
15079;BMP180;6932;51.438;5.470;2024-02-26T12:25:59;99953.00;;;12.20
15079;BMP180;6932;51.438;5.470;2024-02-26T12:28:29;99967.00;;;12.20
15079;BMP180;6932;51.438;5.470;2024-02-26T12:30:56;99957.00;;;12.20
15079;BMP180;6932;51.438;5.470;2024-02-26T12:33:25;99964.00;;;12.30
15079;BMP180;6932;51.438;5.470;2024-02-26T12:35:53;99973.00;;;12.30
15079;BMP180;6932;51.438;5.470;2024-02-26T12:38:19;99971.00;;;12.30
15079;BMP180;6932;51.438;5.470;2024-02-26T12:40:45;99972.00;;;12.30
15079;BMP180;6932;51.438;5.470;2024-02-26T12:43:11;99970.00;;;12.30
15079;BMP180;6932;51.438;5.470;2024-02-26T12:45:42;99973.00;;;12.30
15079;BMP180;6932;51.438;5.470;2024-02-26T12:48:12;99987.00;;;12.40
15079;BMP180;6932;51.438;5.470;2024-02-26T12:50:38;99989.00;;;12.40
15079;BMP180;6932;51.438;5.470;2024-02-26T12:53:05;99981.00;;;12.40
15079;BMP180;6932;51.438;5.470;2024-02-26T12:55:33;100002.00;;;12.40
15079;BMP180;6932;51.438;5.470;2024-02-26T12:58:00;99987.00;;;12.40
15079;BMP180;6932;51.438;5.470;2024-02-26T13:00:27;100002.00;;;12.40
15079;BMP180;6932;51.438;5.470;2024-02-26T13:02:55;100000.00;;;12.40
15079;BMP180;6932;51.438;5.470;2024-02-26T13:05:23;100008.00;;;12.40
15079;BMP180;6932;51.438;5.470;2024-02-26T13:07:49;100005.00;;;12.40
15079;BMP180;6932;51.438;5.470;2024-02-26T13:10:16;100001.00;;;12.40
15079;BMP180;6932;51.438;5.470;2024-02-26T13:12:48;100017.00;;;12.40
15079;BMP180;6932;51.438;5.470;2024-02-26T13:15:20;100019.00;;;12.40
15079;BMP180;6932;51.438;5.470;2024-02-26T13:17:48;100023.00;;;12.40
15079;BMP180;6932;51.438;5.470;2024-02-26T13:20:29;100029.00;;;12.40
15079;BMP180;6932;51.438;5.470;2024-02-26T13:23:03;100037.00;;;12.40
15079;BMP180;6932;51.438;5.470;2024-02-26T13:25:30;100035.00;;;12.40
15079;BMP180;6932;51.438;5.470;2024-02-26T13:28:18;100045.00;;;12.30
15079;BMP180;6932;51.438;5.470;2024-02-26T13:30:52;100040.00;;;12.40
15079;BMP180;6932;51.438;5.470;2024-02-26T13:33:19;100052.00;;;12.40
15079;BMP180;6932;51.438;5.470;2024-02-26T13:35:45;100056.00;;;12.40
15079;BMP180;6932;51.438;5.470;2024-02-26T13:38:10;100078.00;;;12.40
15079;BMP180;6932;51.438;5.470;2024-02-26T13:40:37;100065.00;;;12.40
15079;BMP180;6932;51.438;5.470;2024-02-26T13:43:05;100073.00;;;12.40
15079;BMP180;6932;51.438;5.470;2024-02-26T13:45:37;100069.00;;;12.40
15079;BMP180;6932;51.438;5.470;2024-02-26T13:48:10;100086.00;;;12.40
15079;BMP180;6932;51.438;5.470;2024-02-26T13:50:37;100073.00;;;12.40
15079;BMP180;6932;51.438;5.470;2024-02-26T13:53:03;100098.00;;;12.40
15079;BMP180;6932;51.438;5.470;2024-02-26T13:55:31;100090.00;;;12.40
15079;BMP180;6932;51.438;5.470;2024-02-26T13:57:58;100100.00;;;12.40
15079;BMP180;6932;51.438;5.470;2024-02-26T14:00:28;100092.00;;;12.40
15079;BMP180;6932;51.438;5.470;2024-02-26T14:02:54;100086.00;;;12.40
15079;BMP180;6932;51.438;5.470;2024-02-26T14:05:20;100103.00;;;12.40
15079;BMP180;6932;51.438;5.470;2024-02-26T14:07:46;100107.00;;;12.40
15079;BMP180;6932;51.438;5.470;2024-02-26T14:10:12;100108.00;;;12.40
15079;BMP180;6932;51.438;5.470;2024-02-26T14:12:39;100109.00;;;12.40
15079;BMP180;6932;51.438;5.470;2024-02-26T14:15:06;100113.00;;;12.40
15079;BMP180;6932;51.438;5.470;2024-02-26T14:17:33;100117.00;;;12.40
15079;BMP180;6932;51.438;5.470;2024-02-26T14:19:58;100114.00;;;12.40
15079;BMP180;6932;51.438;5.470;2024-02-26T14:22:25;100117.00;;;12.40
15079;BMP180;6932;51.438;5.470;2024-02-26T14:24:53;100123.00;;;12.40